Time;durP1;ratioP1;P1;durP2;ratioP2;P2;SDS_P1;SDS_P2;PMS_P1;PMS_P2;Temp;Humidity;BMP_temperature;BMP_pressure;BME280_temperature;BME280_humidity;BME280_pressure;Samples;Min_cycle;Max_cycle;Signal;HPM_P1;HPM_P2
2023/02/05 00:01:48;;;;;;;0.85;0.75;;;;;;;;;;5067729;28;20581;-62
2023/02/05 00:04:17;;;;;;;1.05;0.95;;;;;;;;;;5080003;28;20523;-62
2023/02/05 00:06:46;;;;;;;2.63;0.57;;;;;;;;;;5070465;28;20123;-62
2023/02/05 00:09:15;;;;;;;0.65;0.63;;;;;;;;;;5070322;28;20453;-62
2023/02/05 00:11:43;;;;;;;0.55;0.55;;;;;;;;;;5083914;28;20048;-62
2023/02/05 00:14:12;;;;;;;0.40;0.40;;;;;;;;;;5071372;28;20047;-62
2023/02/05 00:16:40;;;;;;;0.40;0.40;;;;;;;;;;5074595;28;20048;-62
2023/02/05 00:19:08;;;;;;;1.42;1.33;;;;;;;;;;5079492;28;20054;-62
2023/02/05 00:21:37;;;;;;;1.02;0.65;;;;;;;;;;5076707;28;20083;-62
2023/02/05 00:24:07;;;;;;;0.80;0.80;;;;;;;;;;5082705;28;20051;-62
2023/02/05 00:26:35;;;;;;;1.45;0.95;;;;;;;;;;5082287;28;20043;-62
2023/02/05 00:29:03;;;;;;;0.85;0.73;;;;;;;;;;5082091;28;20052;-63
2023/02/05 00:31:32;;;;;;;0.77;0.70;;;;;;;;;;5074773;28;20044;-62
2023/02/05 00:34:00;;;;;;;1.25;1.15;;;;;;;;;;5072160;28;20141;-62
2023/02/05 00:36:28;;;;;;;1.02;0.45;;;;;;;;;;5074379;28;20052;-62
2023/02/05 00:38:57;;;;;;;2.75;2.50;;;;;;;;;;5071435;28;20059;-62
2023/02/05 00:41:26;;;;;;;1.00;0.77;;;;;;;;;;5075720;28;20047;-62
2023/02/05 00:43:54;;;;;;;0.75;0.75;;;;;;;;;;5065627;28;20048;-61
2023/02/05 00:46:23;;;;;;;0.85;0.50;;;;;;;;;;5079637;28;20040;-60
2023/02/05 00:48:51;;;;;;;1.45;0.73;;;;;;;;;;5070744;28;20044;-61
2023/02/05 00:51:19;;;;;;;1.00;0.85;;;;;;;;;;5082275;28;20048;-60
2023/02/05 00:53:48;;;;;;;0.85;0.85;;;;;;;;;;5070548;28;20053;-60
2023/02/05 00:56:16;;;;;;;0.40;0.40;;;;;;;;;;5073077;28;20044;-61
2023/02/05 00:58:48;;;;;;;0.50;0.50;;;;;;;;;;5078107;28;20128;-61
2023/02/05 01:01:17;;;;;;;0.75;0.75;;;;;;;;;;5070093;28;20079;-60
2023/02/05 01:03:45;;;;;;;1.40;0.80;;;;;;;;;;5078003;28;20509;-60
2023/02/05 01:06:14;;;;;;;0.30;0.30;;;;;;;;;;5082207;28;20040;-60
2023/02/05 01:08:42;;;;;;;0.52;0.52;;;;;;;;;;5076267;28;20492;-60
2023/02/05 01:11:11;;;;;;;0.50;0.50;;;;;;;;;;5069384;28;20048;-60
2023/02/05 01:13:39;;;;;;;0.38;0.38;;;;;;;;;;5073806;28;20048;-60
2023/02/05 01:16:10;;;;;;;0.30;0.30;;;;;;;;;;5070624;28;20048;-59
2023/02/05 01:18:38;;;;;;;0.60;0.60;;;;;;;;;;5071385;28;20055;-60
2023/02/05 01:21:06;;;;;;;1.35;1.25;;;;;;;;;;5076873;28;20051;-61
2023/02/05 01:23:35;;;;;;;0.50;0.50;;;;;;;;;;5075457;28;20086;-62
2023/02/05 01:26:03;;;;;;;0.85;0.68;;;;;;;;;;5066105;28;20040;-61
2023/02/05 01:28:31;;;;;;;0.80;0.80;;;;;;;;;;5072888;28;20055;-60
2023/02/05 01:31:00;;;;;;;0.52;0.50;;;;;;;;;;5072591;28;20347;-60
2023/02/05 01:33:29;;;;;;;0.45;0.45;;;;;;;;;;5071309;28;20466;-61
2023/02/05 01:35:58;;;;;;;1.38;1.27;;;;;;;;;;5068929;28;20737;-62
2023/02/05 01:38:26;;;;;;;1.25;0.60;;;;;;;;;;5084947;28;20052;-61
2023/02/05 01:40:54;;;;;;;0.40;0.40;;;;;;;;;;5070357;28;20049;-61
2023/02/05 01:43:22;;;;;;;0.95;0.95;;;;;;;;;;5070034;28;20047;-61
2023/02/05 01:45:56;;;;;;;0.40;0.40;;;;;;;;;;5075846;28;20059;-61
2023/02/05 01:48:25;;;;;;;0.50;0.50;;;;;;;;;;5072646;28;20416;-60
2023/02/05 01:50:57;;;;;;;1.25;0.65;;;;;;;;;;5081409;28;20062;-61
2023/02/05 01:53:27;;;;;;;1.05;0.68;;;;;;;;;;5076923;28;20051;-59
2023/02/05 01:55:56;;;;;;;1.15;0.60;;;;;;;;;;5075410;28;20090;-61
2023/02/05 01:58:26;;;;;;;0.57;0.57;;;;;;;;;;5079397;28;20043;-61
2023/02/05 02:00:55;;;;;;;0.47;0.47;;;;;;;;;;5072611;28;20060;-62
2023/02/05 02:03:26;;;;;;;0.40;0.40;;;;;;;;;;5078892;28;20056;-61
2023/02/05 02:05:56;;;;;;;2.35;0.95;;;;;;;;;;5074301;28;20075;-60
2023/02/05 02:08:25;;;;;;;2.28;1.15;;;;;;;;;;5066405;28;20497;-60
2023/02/05 02:10:54;;;;;;;0.65;0.65;;;;;;;;;;5069291;28;20055;-60
2023/02/05 02:13:24;;;;;;;0.57;0.57;;;;;;;;;;5071068;28;20037;-60
2023/02/05 02:15:52;;;;;;;0.40;0.30;;;;;;;;;;5077138;28;20067;-60
2023/02/05 02:18:27;;;;;;;0.60;0.60;;;;;;;;;;5073599;28;20040;-60
2023/02/05 02:21:19;;;;;;;1.98;1.10;;;;;;;;;;5071234;28;20046;-60
2023/02/05 02:23:59;;;;;;;0.35;0.35;;;;;;;;;;4981694;28;20514;-61
2023/02/05 02:26:39;;;;;;;0.38;0.38;;;;;;;;;;5070490;28;20052;-61
2023/02/05 02:29:10;;;;;;;0.55;0.55;;;;;;;;;;5072587;28;20071;-61
2023/02/05 02:31:41;;;;;;;0.88;0.88;;;;;;;;;;5081316;28;20044;-61
2023/02/05 02:34:12;;;;;;;0.30;0.30;;;;;;;;;;5078493;28;20054;-61
2023/02/05 02:36:48;;;;;;;0.50;0.50;;;;;;;;;;5069945;28;20044;-60
2023/02/05 02:39:19;;;;;;;4.20;0.95;;;;;;;;;;5078449;28;20075;-64
2023/02/05 02:41:51;;;;;;;0.45;0.45;;;;;;;;;;5081371;28;20689;-61
2023/02/05 02:44:25;;;;;;;0.32;0.32;;;;;;;;;;5081263;28;20047;-61
2023/02/05 02:46:55;;;;;;;0.25;0.25;;;;;;;;;;5074187;28;20163;-64
2023/02/05 02:49:26;;;;;;;0.70;0.70;;;;;;;;;;5066745;28;20048;-61
2023/02/05 02:51:55;;;;;;;1.13;1.10;;;;;;;;;;5078538;28;20466;-60
2023/02/05 02:54:25;;;;;;;0.30;0.30;;;;;;;;;;5080221;28;20041;-61
2023/02/05 02:56:53;;;;;;;0.47;0.47;;;;;;;;;;5075824;28;20044;-61
2023/02/05 02:59:25;;;;;;;1.08;0.98;;;;;;;;;;5068274;28;20056;-61
2023/02/05 03:01:55;;;;;;;0.80;0.80;;;;;;;;;;5073419;28;20508;-62
2023/02/05 03:04:25;;;;;;;0.73;0.73;;;;;;;;;;5068222;28;20080;-60
2023/02/05 03:06:55;;;;;;;0.95;0.95;;;;;;;;;;5072136;28;20409;-60
2023/02/05 03:09:27;;;;;;;0.77;0.77;;;;;;;;;;5076694;28;20045;-60
2023/02/05 03:11:56;;;;;;;1.95;0.93;;;;;;;;;;5073706;28;20044;-61
2023/02/05 03:14:25;;;;;;;0.75;0.75;;;;;;;;;;5067470;28;20049;-61
2023/02/05 03:16:54;;;;;;;1.13;0.98;;;;;;;;;;5079882;28;20050;-62
2023/02/05 03:19:22;;;;;;;1.05;0.52;;;;;;;;;;5078182;28;20070;-61
2023/02/05 03:21:52;;;;;;;1.75;0.93;;;;;;;;;;5073803;28;20063;-63
2023/02/05 03:24:20;;;;;;;0.40;0.40;;;;;;;;;;5075044;28;20478;-62
2023/02/05 03:26:48;;;;;;;0.32;0.32;;;;;;;;;;5076473;28;20049;-60
2023/02/05 03:29:19;;;;;;;0.52;0.50;;;;;;;;;;5078169;28;20053;-60
2023/02/05 03:31:52;;;;;;;0.57;0.57;;;;;;;;;;5073162;28;20051;-61
2023/02/05 03:34:24;;;;;;;4.57;0.82;;;;;;;;;;5081222;28;20501;-60
2023/02/05 03:36:57;;;;;;;0.70;0.60;;;;;;;;;;5074233;28;20052;-61
2023/02/05 03:39:34;;;;;;;0.30;0.30;;;;;;;;;;5078156;28;20047;-60
2023/02/05 03:42:11;;;;;;;0.20;0.20;;;;;;;;;;5077993;28;20059;-61
2023/02/05 03:44:46;;;;;;;0.40;0.40;;;;;;;;;;5081053;28;20051;-60
2023/02/05 03:47:20;;;;;;;2.53;0.50;;;;;;;;;;5088039;28;20051;-60
2023/02/05 03:49:52;;;;;;;0.35;0.35;;;;;;;;;;5076391;28;20059;-60
2023/02/05 03:52:23;;;;;;;0.75;0.75;;;;;;;;;;5078816;28;20048;-60
2023/02/05 03:54:57;;;;;;;0.40;0.40;;;;;;;;;;5077569;28;20110;-61
2023/02/05 03:57:27;;;;;;;0.65;0.65;;;;;;;;;;5072800;28;20044;-60
2023/02/05 03:59:56;;;;;;;0.30;0.30;;;;;;;;;;5081233;28;20047;-60
2023/02/05 04:02:26;;;;;;;0.30;0.30;;;;;;;;;;5081224;28;20075;-60
2023/02/05 04:04:54;;;;;;;0.55;0.55;;;;;;;;;;5071103;28;20428;-60
2023/02/05 04:07:23;;;;;;;0.68;0.68;;;;;;;;;;5069828;28;20451;-60
2023/02/05 04:09:51;;;;;;;0.40;0.40;;;;;;;;;;5072943;28;20547;-60
2023/02/05 04:12:19;;;;;;;0.55;0.55;;;;;;;;;;5077350;28;20047;-60
2023/02/05 04:14:48;;;;;;;0.45;0.45;;;;;;;;;;5076862;28;20319;-60
2023/02/05 04:17:16;;;;;;;0.30;0.30;;;;;;;;;;5071806;28;20405;-60
2023/02/05 04:19:46;;;;;;;0.30;0.30;;;;;;;;;;5071602;28;20041;-60
2023/02/05 04:22:14;;;;;;;0.22;0.22;;;;;;;;;;5077663;28;20048;-60
2023/02/05 04:24:42;;;;;;;3.08;0.60;;;;;;;;;;5072906;28;20048;-61
2023/02/05 04:27:10;;;;;;;0.80;0.52;;;;;;;;;;5073535;28;20055;-61
2023/02/05 04:29:39;;;;;;;1.50;1.10;;;;;;;;;;5070916;28;20056;-60
2023/02/05 04:32:07;;;;;;;1.35;0.82;;;;;;;;;;5073673;28;20055;-61
2023/02/05 04:34:35;;;;;;;0.40;0.40;;;;;;;;;;5070383;28;20040;-60
2023/02/05 04:37:05;;;;;;;1.10;0.80;;;;;;;;;;5070184;28;20045;-60
2023/02/05 04:39:33;;;;;;;0.63;0.63;;;;;;;;;;5078776;28;20051;-60
2023/02/05 04:42:01;;;;;;;0.85;0.73;;;;;;;;;;5077396;28;20043;-60
2023/02/05 04:44:29;;;;;;;0.68;0.68;;;;;;;;;;5087387;28;20044;-60
2023/02/05 04:46:58;;;;;;;1.75;0.80;;;;;;;;;;5077221;28;20465;-62
2023/02/05 04:49:26;;;;;;;2.45;1.20;;;;;;;;;;5067584;28;20416;-60
2023/02/05 04:51:55;;;;;;;0.65;0.65;;;;;;;;;;5069183;28;20091;-60
2023/02/05 04:54:24;;;;;;;0.30;0.30;;;;;;;;;;5079997;28;20048;-62
2023/02/05 04:56:52;;;;;;;0.35;0.35;;;;;;;;;;5071378;28;20472;-61
2023/02/05 04:59:21;;;;;;;0.60;0.60;;;;;;;;;;5081893;28;20040;-60
2023/02/05 05:01:49;;;;;;;2.47;0.75;;;;;;;;;;5079738;28;20412;-60
2023/02/05 05:04:18;;;;;;;0.43;0.43;;;;;;;;;;5070190;28;20048;-61
2023/02/05 05:06:46;;;;;;;0.65;0.65;;;;;;;;;;5073091;28;20049;-62
2023/02/05 05:09:14;;;;;;;0.50;0.45;;;;;;;;;;5080173;28;20062;-60
2023/02/05 05:11:44;;;;;;;0.95;0.88;;;;;;;;;;5080067;28;20052;-60
2023/02/05 05:14:12;;;;;;;0.90;0.75;;;;;;;;;;5083017;28;20067;-61
2023/02/05 05:16:40;;;;;;;0.68;0.60;;;;;;;;;;5074250;28;20141;-61
2023/02/05 05:19:08;;;;;;;0.82;0.82;;;;;;;;;;5075336;28;20048;-61
2023/02/05 05:21:37;;;;;;;0.30;0.30;;;;;;;;;;5070499;28;20048;-60
2023/02/05 05:24:05;;;;;;;0.63;0.60;;;;;;;;;;5083525;28;20039;-60
2023/02/05 05:26:33;;;;;;;0.73;0.73;;;;;;;;;;5081608;28;20060;-61
2023/02/05 05:29:05;;;;;;;0.30;0.30;;;;;;;;;;5074946;28;20051;-60
2023/02/05 05:31:33;;;;;;;0.50;0.50;;;;;;;;;;5077818;28;20130;-61
2023/02/05 05:34:01;;;;;;;0.30;0.30;;;;;;;;;;5070500;28;20477;-61
2023/02/05 05:36:29;;;;;;;0.57;0.57;;;;;;;;;;5077829;28;20040;-60
2023/02/05 05:43:45;;;;;;;0.70;0.50;;;;;;;;;;5080560;28;20512;-61
2023/02/05 05:44:34;;;;;;;0.32;0.32;;;;;;;;;;5077564;28;20056;-60
2023/02/05 05:47:02;;;;;;;0.45;0.45;;;;;;;;;;5079729;28;20048;-60
2023/02/05 05:49:30;;;;;;;0.57;0.57;;;;;;;;;;5080886;28;20050;-60
2023/02/05 05:51:58;;;;;;;0.60;0.60;;;;;;;;;;5073421;28;20059;-60
2023/02/05 05:54:27;;;;;;;0.65;0.50;;;;;;;;;;5082539;28;20044;-60
2023/02/05 05:56:55;;;;;;;0.30;0.30;;;;;;;;;;5079546;28;20091;-61
2023/02/05 05:59:23;;;;;;;0.40;0.40;;;;;;;;;;5077067;28;20048;-60
2023/02/05 06:01:53;;;;;;;0.30;0.30;;;;;;;;;;5067775;28;20113;-61
2023/02/05 06:04:21;;;;;;;0.30;0.30;;;;;;;;;;5063847;28;20078;-60
2023/02/05 06:06:50;;;;;;;0.77;0.77;;;;;;;;;;5068980;28;20058;-60
2023/02/05 06:09:20;;;;;;;1.52;1.00;;;;;;;;;;5070507;28;20052;-61
2023/02/05 06:11:48;;;;;;;0.45;0.45;;;;;;;;;;5068936;28;20425;-62
2023/02/05 06:14:17;;;;;;;0.50;0.50;;;;;;;;;;5069898;28;20061;-61
2023/02/05 06:16:45;;;;;;;0.68;0.68;;;;;;;;;;5069959;28;20059;-61
2023/02/05 06:19:15;;;;;;;0.52;0.52;;;;;;;;;;5067044;28;20068;-60
2023/02/05 06:21:43;;;;;;;0.40;0.40;;;;;;;;;;5068152;28;20040;-60
2023/02/05 06:24:11;;;;;;;1.25;1.20;;;;;;;;;;5069495;28;20485;-60
2023/02/05 06:26:40;;;;;;;0.50;0.47;;;;;;;;;;5069491;28;20131;-61
2023/02/05 06:29:08;;;;;;;0.40;0.40;;;;;;;;;;5068512;28;20056;-63
2023/02/05 06:31:36;;;;;;;0.60;0.60;;;;;;;;;;5068201;28;20051;-62
2023/02/05 06:34:05;;;;;;;0.93;0.93;;;;;;;;;;5069235;28;20118;-61
2023/02/05 06:36:34;;;;;;;0.93;0.93;;;;;;;;;;5070056;28;20147;-62
2023/02/05 06:42:29;;;;;;;0.50;0.50;;;;;;;;;;5055556;28;20059;-61
2023/02/05 06:44:57;;;;;;;0.50;0.50;;;;;;;;;;5068226;28;20139;-61
2023/02/05 06:54:21;;;;;;;0.30;0.30;;;;;;;;;;5071246;28;20046;-61
2023/02/05 06:56:50;;;;;;;0.32;0.32;;;;;;;;;;5072921;28;21117;-62
2023/02/05 06:59:18;;;;;;;1.40;1.10;;;;;;;;;;5070437;28;20052;-62
2023/02/05 07:02:05;;;;;;;2.30;0.68;;;;;;;;;;5069573;28;20052;-61
2023/02/05 07:04:33;;;;;;;0.40;0.40;;;;;;;;;;5069269;28;20048;-61
2023/02/05 07:07:02;;;;;;;0.93;0.93;;;;;;;;;;5079238;28;20409;-62
2023/02/05 07:09:31;;;;;;;3.30;1.15;;;;;;;;;;5070148;28;20202;-61
2023/02/05 07:12:00;;;;;;;1.17;1.15;;;;;;;;;;5059863;28;20532;-62
2023/02/05 07:14:30;;;;;;;0.50;0.50;;;;;;;;;;5066775;28;20113;-62
2023/02/05 07:16:58;;;;;;;0.40;0.40;;;;;;;;;;5077456;28;20048;-61
2023/02/05 07:19:27;;;;;;;0.32;0.32;;;;;;;;;;5065869;28;20055;-61
2023/02/05 07:21:55;;;;;;;0.20;0.20;;;;;;;;;;5065826;28;20497;-62
2023/02/05 07:24:23;;;;;;;0.50;0.50;;;;;;;;;;5065256;28;20064;-62
2023/02/05 07:26:53;;;;;;;0.73;0.70;;;;;;;;;;5070379;28;20056;-62
2023/02/05 07:29:21;;;;;;;0.60;0.60;;;;;;;;;;5068566;28;20055;-62
2023/02/05 07:31:50;;;;;;;0.40;0.40;;;;;;;;;;5066114;28;20106;-62
2023/02/05 07:34:19;;;;;;;0.50;0.50;;;;;;;;;;5073041;28;20503;-61
2023/02/05 07:36:50;;;;;;;0.70;0.70;;;;;;;;;;5071534;28;20044;-62
2023/02/05 07:39:18;;;;;;;0.30;0.30;;;;;;;;;;5070769;28;20115;-61
2023/02/05 07:41:46;;;;;;;0.50;0.50;;;;;;;;;;5072953;28;20484;-62
2023/02/05 07:44:16;;;;;;;0.32;0.32;;;;;;;;;;5069897;28;20052;-62
2023/02/05 07:46:45;;;;;;;0.52;0.52;;;;;;;;;;5072221;28;20045;-62
2023/02/05 07:49:13;;;;;;;0.85;0.43;;;;;;;;;;5062751;28;20394;-62
2023/02/05 07:51:41;;;;;;;2.55;1.00;;;;;;;;;;5066684;28;20033;-62
2023/02/05 07:54:10;;;;;;;1.10;1.10;;;;;;;;;;5068788;28;20136;-62
2023/02/05 07:56:39;;;;;;;0.57;0.57;;;;;;;;;;5063624;28;20160;-62
2023/02/05 07:59:07;;;;;;;0.47;0.47;;;;;;;;;;5061707;28;20064;-63
2023/02/05 08:01:37;;;;;;;0.30;0.30;;;;;;;;;;5066658;28;20106;-63
2023/02/05 08:04:05;;;;;;;0.50;0.50;;;;;;;;;;5069113;28;20052;-62
2023/02/05 08:06:34;;;;;;;4.38;0.60;;;;;;;;;;5079309;28;20131;-62
2023/02/05 08:09:03;;;;;;;0.57;0.57;;;;;;;;;;5074105;28;20059;-62
2023/02/05 08:11:31;;;;;;;0.40;0.40;;;;;;;;;;5069273;28;20045;-62
2023/02/05 08:14:01;;;;;;;0.30;0.30;;;;;;;;;;5064018;28;20091;-61
2023/02/05 08:16:29;;;;;;;0.45;0.45;;;;;;;;;;5067787;28;20045;-62
2023/02/05 08:18:59;;;;;;;0.40;0.40;;;;;;;;;;5072190;28;20111;-61
2023/02/05 08:21:28;;;;;;;0.52;0.43;;;;;;;;;;5065413;28;20045;-61
2023/02/05 08:23:57;;;;;;;1.77;1.17;;;;;;;;;;5075275;28;20159;-62
2023/02/05 08:26:25;;;;;;;0.50;0.50;;;;;;;;;;5081168;28;20044;-61
2023/02/05 08:28:55;;;;;;;1.15;1.08;;;;;;;;;;5071124;28;20517;-63
2023/02/05 08:31:23;;;;;;;0.22;0.22;;;;;;;;;;5073402;28;20048;-62
2023/02/05 08:33:53;;;;;;;0.40;0.40;;;;;;;;;;5073659;28;20049;-62
2023/02/05 08:36:23;;;;;;;0.40;0.40;;;;;;;;;;5067875;28;20052;-62
2023/02/05 08:38:51;;;;;;;0.75;0.70;;;;;;;;;;5083551;28;20060;-61
2023/02/05 08:41:20;;;;;;;1.58;0.63;;;;;;;;;;5078415;28;20040;-62
2023/02/05 08:43:50;;;;;;;0.57;0.57;;;;;;;;;;5067504;28;20060;-62
2023/02/05 08:46:19;;;;;;;0.73;0.70;;;;;;;;;;5070981;28;20177;-62
2023/02/05 08:48:50;;;;;;;1.17;1.17;;;;;;;;;;5083110;28;20051;-65
2023/02/05 08:51:19;;;;;;;0.98;0.98;;;;;;;;;;5068478;28;20147;-66
2023/02/05 08:53:48;;;;;;;0.93;0.80;;;;;;;;;;5065774;28;20086;-61
2023/02/05 08:56:17;;;;;;;1.95;1.73;;;;;;;;;;5066915;28;20140;-63
2023/02/05 08:58:47;;;;;;;0.43;0.43;;;;;;;;;;5062198;28;20078;-62
2023/02/05 09:01:16;;;;;;;2.08;1.55;;;;;;;;;;5079652;28;20507;-62
2023/02/05 09:03:45;;;;;;;2.40;0.88;;;;;;;;;;5072223;28;20087;-63
2023/02/05 09:06:14;;;;;;;1.10;0.77;;;;;;;;;;5067763;28;20049;-62
2023/02/05 09:08:43;;;;;;;0.73;0.68;;;;;;;;;;5071485;28;20101;-63
2023/02/05 09:11:13;;;;;;;0.45;0.45;;;;;;;;;;5071665;28;20044;-64
2023/02/05 09:13:41;;;;;;;0.65;0.65;;;;;;;;;;5070874;28;20078;-63
2023/02/05 09:16:11;;;;;;;1.15;1.15;;;;;;;;;;5068578;28;20055;-63
2023/02/05 09:18:39;;;;;;;1.10;0.77;;;;;;;;;;5071435;28;20048;-63
2023/02/05 09:21:08;;;;;;;0.40;0.40;;;;;;;;;;5074947;28;20053;-63
2023/02/05 09:23:37;;;;;;;2.05;1.35;;;;;;;;;;5070498;28;20438;-63
2023/02/05 09:26:05;;;;;;;1.83;0.73;;;;;;;;;;5067267;28;20464;-63
2023/02/05 09:28:35;;;;;;;0.90;0.65;;;;;;;;;;5066507;28;20423;-63
2023/02/05 09:31:05;;;;;;;0.60;0.60;;;;;;;;;;5071626;28;20053;-63
2023/02/05 09:33:34;;;;;;;1.15;0.70;;;;;;;;;;5069447;28;20101;-63
2023/02/05 09:36:06;;;;;;;0.77;0.40;;;;;;;;;;5069970;28;20044;-63
2023/02/05 09:38:35;;;;;;;0.40;0.40;;;;;;;;;;5060571;28;20045;-63
2023/02/05 09:41:05;;;;;;;1.00;0.70;;;;;;;;;;5075231;28;20072;-63
2023/02/05 09:43:42;;;;;;;0.85;0.73;;;;;;;;;;5068764;28;20134;-63
2023/02/05 09:46:11;;;;;;;0.63;0.57;;;;;;;;;;5068918;28;20051;-63
2023/02/05 09:48:49;;;;;;;0.88;0.75;;;;;;;;;;5070455;28;20088;-63
2023/02/05 09:51:18;;;;;;;0.60;0.60;;;;;;;;;;5061995;28;20057;-63
2023/02/05 09:53:49;;;;;;;0.82;0.82;;;;;;;;;;5063669;28;20464;-63
2023/02/05 09:56:17;;;;;;;1.75;1.42;;;;;;;;;;5066017;28;20052;-64
2023/02/05 09:58:49;;;;;;;0.75;0.75;;;;;;;;;;5069259;28;20128;-63
2023/02/05 10:01:21;;;;;;;0.85;0.68;;;;;;;;;;5078187;28;20132;-63
2023/02/05 10:03:52;;;;;;;0.52;0.52;;;;;;;;;;5066427;28;20507;-63
2023/02/05 10:06:28;;;;;;;0.85;0.68;;;;;;;;;;5076723;28;20044;-64
2023/02/05 10:09:01;;;;;;;0.70;0.70;;;;;;;;;;5067698;28;20055;-65
2023/02/05 10:11:34;;;;;;;2.28;0.50;;;;;;;;;;5061213;28;20084;-64
2023/02/05 10:14:08;;;;;;;1.73;1.63;;;;;;;;;;5074234;28;20056;-64
2023/02/05 10:16:49;;;;;;;5.03;1.73;;;;;;;;;;5069384;28;20044;-64
2023/02/05 10:19:26;;;;;;;2.10;0.80;;;;;;;;;;5062211;28;20052;-65
2023/02/05 10:22:10;;;;;;;9.13;1.15;;;;;;;;;;5073267;28;20048;-64
2023/02/05 10:24:49;;;;;;;0.68;0.68;;;;;;;;;;5068382;28;20473;-65
2023/02/05 10:27:20;;;;;;;2.85;1.45;;;;;;;;;;5064761;28;20053;-64
2023/02/05 10:29:54;;;;;;;2.00;1.30;;;;;;;;;;5071545;28;20056;-67
2023/02/05 10:32:23;;;;;;;2.40;1.52;;;;;;;;;;5077725;28;20044;-63
2023/02/05 10:34:58;;;;;;;1.63;1.38;;;;;;;;;;5070646;28;20122;-62
2023/02/05 10:37:31;;;;;;;2.95;1.17;;;;;;;;;;5077860;28;20048;-61
2023/02/05 10:40:00;;;;;;;2.72;1.40;;;;;;;;;;5066553;28;20420;-62
2023/02/05 10:42:32;;;;;;;1.98;1.77;;;;;;;;;;5068368;28;20183;-63
2023/02/05 10:45:05;;;;;;;4.68;1.70;;;;;;;;;;5067486;28;20051;-62
2023/02/05 10:47:43;;;;;;;8.95;1.00;;;;;;;;;;5065521;28;20051;-62
2023/02/05 10:50:17;;;;;;;0.73;0.73;;;;;;;;;;5061488;28;20051;-64
2023/02/05 10:52:45;;;;;;;2.45;1.33;;;;;;;;;;5064099;28;20040;-62
2023/02/05 10:55:13;;;;;;;1.40;0.82;;;;;;;;;;5053454;28;20048;-62
2023/02/05 10:57:42;;;;;;;3.45;1.70;;;;;;;;;;5065517;28;20052;-63
2023/02/05 11:00:16;;;;;;;2.05;1.08;;;;;;;;;;5065697;28;20060;-62
2023/02/05 11:02:47;;;;;;;3.70;1.88;;;;;;;;;;5070382;28;20053;-61
2023/02/05 11:05:17;;;;;;;0.90;0.70;;;;;;;;;;5075683;28;20071;-62
2023/02/05 11:07:47;;;;;;;1.20;1.10;;;;;;;;;;5066706;28;20060;-62
2023/02/05 11:10:16;;;;;;;4.53;1.25;;;;;;;;;;5062949;28;20525;-62
2023/02/05 11:12:45;;;;;;;1.95;0.95;;;;;;;;;;5064180;28;20037;-62
2023/02/05 11:15:20;;;;;;;2.20;1.27;;;;;;;;;;5067908;28;20523;-63
2023/02/05 11:17:53;;;;;;;0.75;0.75;;;;;;;;;;5065449;28;20059;-61
2023/02/05 11:20:29;;;;;;;0.65;0.65;;;;;;;;;;5070896;28;20162;-63
2023/02/05 11:23:06;;;;;;;0.90;0.73;;;;;;;;;;5066480;28;20117;-63
2023/02/05 11:25:34;;;;;;;2.00;1.13;;;;;;;;;;5066916;28;20398;-64
2023/02/05 11:28:04;;;;;;;0.77;0.55;;;;;;;;;;5058440;28;20416;-64
2023/02/05 11:30:35;;;;;;;8.55;1.42;;;;;;;;;;5077859;28;20048;-65
2023/02/05 11:33:25;;;;;;;2.53;1.23;;;;;;;;;;5064952;28;20084;-65
2023/02/05 11:35:55;;;;;;;3.53;1.00;;;;;;;;;;5068571;28;20161;-66
2023/02/05 11:38:30;;;;;;;3.65;0.85;;;;;;;;;;5070843;28;20044;-67
2023/02/05 11:41:00;;;;;;;1.58;1.48;;;;;;;;;;5083360;28;20075;-66
2023/02/05 11:43:31;;;;;;;1.23;0.65;;;;;;;;;;5075056;28;20439;-63
2023/02/05 11:46:02;;;;;;;2.42;1.00;;;;;;;;;;5071932;28;20527;-65
2023/02/05 11:48:35;;;;;;;1.00;0.73;;;;;;;;;;5075714;28;20108;-66
2023/02/05 11:51:05;;;;;;;1.40;0.50;;;;;;;;;;5065685;28;20055;-64
2023/02/05 11:53:36;;;;;;;2.47;1.27;;;;;;;;;;5071130;28;20048;-64
2023/02/05 11:56:07;;;;;;;0.52;0.40;;;;;;;;;;5065133;28;20312;-64
2023/02/05 11:58:35;;;;;;;6.82;1.35;;;;;;;;;;5076826;28;20060;-64
2023/02/05 12:01:08;;;;;;;0.40;0.40;;;;;;;;;;5069686;28;20511;-64
2023/02/05 12:03:37;;;;;;;6.00;1.02;;;;;;;;;;5071065;28;20072;-65
2023/02/05 12:06:12;;;;;;;1.38;0.85;;;;;;;;;;5070382;28;20070;-65
2023/02/05 12:08:43;;;;;;;0.60;0.60;;;;;;;;;;5069184;28;20105;-63
2023/02/05 12:11:20;;;;;;;4.72;0.55;;;;;;;;;;5068943;28;20452;-63
2023/02/05 12:13:55;;;;;;;1.38;0.60;;;;;;;;;;5071079;28;20051;-64
2023/02/05 12:16:35;;;;;;;4.95;0.65;;;;;;;;;;5067197;28;20047;-64
2023/02/05 12:19:10;;;;;;;1.48;1.20;;;;;;;;;;5073184;28;20576;-63
2023/02/05 12:21:42;;;;;;;0.40;0.40;;;;;;;;;;5068852;28;20051;-63
2023/02/05 12:24:25;;;;;;;5.25;0.88;;;;;;;;;;5067622;28;20079;-63
2023/02/05 12:26:57;;;;;;;4.50;1.50;;;;;;;;;;5063802;28;20124;-64
2023/02/05 12:29:35;;;;;;;0.40;0.40;;;;;;;;;;5074808;28;20051;-66
2023/02/05 12:32:08;;;;;;;1.02;0.70;;;;;;;;;;5073284;28;20151;-65
2023/02/05 12:34:41;;;;;;;1.20;0.45;;;;;;;;;;5068186;28;20417;-62
2023/02/05 12:37:24;;;;;;;0.47;0.40;;;;;;;;;;5067476;28;20080;-62
2023/02/05 12:39:53;;;;;;;2.08;0.80;;;;;;;;;;5069961;28;20497;-62
2023/02/05 12:42:26;;;;;;;0.57;0.40;;;;;;;;;;5073880;28;20427;-62
2023/02/05 12:45:00;;;;;;;1.30;0.75;;;;;;;;;;5080876;28;20055;-63
2023/02/05 12:47:39;;;;;;;9.43;0.82;;;;;;;;;;5073842;28;20044;-61
2023/02/05 12:50:15;;;;;;;1.52;0.77;;;;;;;;;;5064227;28;20048;-61
2023/02/05 12:52:51;;;;;;;1.20;0.85;;;;;;;;;;5062256;28;20048;-61
2023/02/05 12:55:25;;;;;;;1.42;0.93;;;;;;;;;;5073767;28;20059;-62
2023/02/05 12:57:55;;;;;;;33.95;17.38;;;;;;;;;;5077942;28;20051;-62
2023/02/05 13:00:24;;;;;;;52.97;28.35;;;;;;;;;;5073908;28;20066;-62
2023/02/05 13:02:56;;;;;;;35.22;18.52;;;;;;;;;;5070387;28;20051;-61
2023/02/05 13:05:28;;;;;;;26.23;12.95;;;;;;;;;;5075480;28;20044;-62
2023/02/05 13:08:00;;;;;;;11.70;7.47;;;;;;;;;;5078968;28;20052;-62
2023/02/05 13:10:30;;;;;;;7.00;5.47;;;;;;;;;;5073424;28;20052;-64
2023/02/05 13:13:00;;;;;;;9.35;4.63;;;;;;;;;;5075037;28;20056;-62
2023/02/05 13:15:31;;;;;;;5.43;2.95;;;;;;;;;;5071433;28;20142;-62
2023/02/05 13:18:03;;;;;;;10.13;2.33;;;;;;;;;;5068388;28;20051;-62
2023/02/05 13:28:56;;;;;;;5.00;2.10;;;;;;;;;;5045062;28;20045;-62
2023/02/05 13:31:27;;;;;;;4.90;1.23;;;;;;;;;;5073199;28;20080;-62
2023/02/05 13:34:01;;;;;;;9.15;2.42;;;;;;;;;;5072411;28;20051;-62
2023/02/05 13:36:41;;;;;;;1.67;1.52;;;;;;;;;;5071077;28;20393;-64
2023/02/05 13:39:18;;;;;;;2.33;1.10;;;;;;;;;;5068406;28;20493;-65
2023/02/05 13:42:08;;;;;;;7.35;2.03;;;;;;;;;;5067580;28;20113;-62
2023/02/05 13:44:53;;;;;;;5.82;1.17;;;;;;;;;;5072489;28;20068;-62
2023/02/05 13:47:32;;;;;;;16.00;2.08;;;;;;;;;;5068162;28;20048;-63
2023/02/05 13:50:16;;;;;;;6.35;1.52;;;;;;;;;;5074603;28;20052;-67
2023/02/05 13:53:04;;;;;;;3.50;1.13;;;;;;;;;;5069027;28;20045;-63
2023/02/05 13:55:44;;;;;;;8.50;1.83;;;;;;;;;;5068836;28;20055;-62
2023/02/05 13:58:20;;;;;;;2.13;1.63;;;;;;;;;;5069011;28;20044;-65
2023/02/05 14:00:54;;;;;;;2.58;0.93;;;;;;;;;;5069914;28;20044;-62
2023/02/05 14:03:28;;;;;;;1.73;0.68;;;;;;;;;;5064361;28;20040;-63
2023/02/05 14:05:58;;;;;;;4.75;1.42;;;;;;;;;;5069023;28;20041;-62
2023/02/05 14:08:28;;;;;;;1.70;1.60;;;;;;;;;;5071920;28;20135;-63
2023/02/05 14:10:58;;;;;;;0.88;0.80;;;;;;;;;;5070187;28;20044;-62
2023/02/05 14:13:30;;;;;;;3.70;0.80;;;;;;;;;;5068508;28;20489;-63
2023/02/05 14:15:59;;;;;;;1.02;0.95;;;;;;;;;;5062696;28;20072;-62
2023/02/05 14:18:47;;;;;;;1.95;1.17;;;;;;;;;;5069077;28;20059;-62
2023/02/05 14:21:34;;;;;;;4.80;0.88;;;;;;;;;;5070756;28;20390;-64
2023/02/05 14:24:04;;;;;;;10.57;2.17;;;;;;;;;;5069785;28;20128;-63
2023/02/05 14:26:46;;;;;;;1.83;1.02;;;;;;;;;;5073072;28;20058;-62
2023/02/05 14:29:33;;;;;;;7.47;1.45;;;;;;;;;;5067929;28;20110;-62
2023/02/05 14:32:02;;;;;;;2.28;1.27;;;;;;;;;;5065794;28;20070;-63
2023/02/05 14:34:51;;;;;;;4.07;0.75;;;;;;;;;;5071199;28;20040;-64
2023/02/05 14:37:38;;;;;;;5.32;0.73;;;;;;;;;;5067453;28;20477;-64
2023/02/05 14:40:22;;;;;;;4.30;1.08;;;;;;;;;;5071097;28;20041;-62
2023/02/05 14:42:51;;;;;;;2.80;1.60;;;;;;;;;;5070532;28;20052;-63
2023/02/05 14:45:23;;;;;;;8.43;1.67;;;;;;;;;;5067025;28;20060;-63
2023/02/05 14:47:52;;;;;;;4.25;1.40;;;;;;;;;;5066658;28;20070;-62
2023/02/05 14:50:26;;;;;;;1.95;1.58;;;;;;;;;;5067299;28;20401;-65
2023/02/05 14:52:57;;;;;;;3.13;1.40;;;;;;;;;;5067572;28;20045;-62
2023/02/05 14:55:31;;;;;;;1.65;0.65;;;;;;;;;;5068278;28;20062;-62
2023/02/05 14:58:03;;;;;;;1.92;1.17;;;;;;;;;;5070616;28;20548;-64
2023/02/05 15:00:33;;;;;;;1.98;0.85;;;;;;;;;;5079680;28;20505;-62
2023/02/05 15:03:20;;;;;;;1.50;1.08;;;;;;;;;;5072029;28;20485;-63
2023/02/05 15:05:52;;;;;;;3.03;1.70;;;;;;;;;;5069633;28;20049;-64
2023/02/05 15:08:23;;;;;;;1.60;1.45;;;;;;;;;;5069195;28;20407;-64
2023/02/05 15:10:55;;;;;;;0.90;0.90;;;;;;;;;;5063074;28;20213;-63
2023/02/05 15:13:25;;;;;;;1.00;0.77;;;;;;;;;;5071211;28;20075;-63
2023/02/05 15:16:12;;;;;;;0.75;0.68;;;;;;;;;;5077781;28;20061;-63
2023/02/05 15:18:41;;;;;;;2.65;0.98;;;;;;;;;;5074869;28;20094;-63
2023/02/05 15:21:14;;;;;;;3.33;1.00;;;;;;;;;;5066829;28;20040;-63
2023/02/05 15:23:45;;;;;;;5.88;1.10;;;;;;;;;;5074920;28;20052;-64
2023/02/05 15:26:20;;;;;;;2.97;1.85;;;;;;;;;;5077337;28;20044;-62
2023/02/05 15:28:55;;;;;;;0.88;0.75;;;;;;;;;;5073408;28;20060;-62